createdAt,value
2023-05-09T00:00:56.129Z,39.01
2023-05-09T00:01:56.221Z,39.00
2023-05-09T00:02:56.268Z,39.04
2023-05-09T00:03:56.286Z,39.04
2023-05-09T00:04:56.316Z,39.05
2023-05-09T00:05:56.366Z,39.05
2023-05-09T00:06:56.409Z,39.03
2023-05-09T00:07:56.492Z,39.05
2023-05-09T00:08:56.517Z,39.03
2023-05-09T00:09:56.762Z,39.04
2023-05-09T00:10:56.636Z,39.04
2023-05-09T00:11:56.691Z,39.07
2023-05-09T00:12:56.771Z,39.11
2023-05-09T00:13:56.776Z,39.10
2023-05-09T00:14:56.890Z,39.07
2023-05-09T00:15:56.878Z,39.08
2023-05-09T00:16:56.997Z,39.08
2023-05-09T00:17:57.552Z,39.10
2023-05-09T00:18:57.027Z,39.10
2023-05-09T00:19:57.105Z,39.11
2023-05-09T00:20:57.143Z,39.08
2023-05-09T00:21:57.182Z,39.11
2023-05-09T00:22:57.223Z,39.09
2023-05-09T00:23:57.279Z,39.12
2023-05-09T00:24:57.303Z,39.09
2023-05-09T00:25:57.743Z,39.11
2023-05-09T00:26:57.369Z,39.06
2023-05-09T00:27:57.404Z,39.11
2023-05-09T00:28:57.409Z,39.12
2023-05-09T00:29:57.454Z,39.06
2023-05-09T00:30:57.456Z,39.15
2023-05-09T00:31:57.519Z,39.09
2023-05-09T00:32:57.555Z,39.08
2023-05-09T00:33:57.803Z,39.06
2023-05-09T00:34:57.570Z,39.03
2023-05-09T00:35:57.556Z,39.11
2023-05-09T00:36:57.565Z,39.08
2023-05-09T00:37:57.586Z,39.08
2023-05-09T00:38:57.609Z,39.08
2023-05-09T00:39:57.654Z,39.09
2023-05-09T00:40:57.671Z,39.08
2023-05-09T00:41:57.848Z,39.05
2023-05-09T00:42:57.777Z,39.06
2023-05-09T00:43:57.812Z,39.06
2023-05-09T00:44:57.843Z,39.05
2023-05-09T00:45:57.911Z,39.06
2023-05-09T00:46:57.947Z,39.04
2023-05-09T00:47:58.008Z,39.05
2023-05-09T00:48:58.033Z,39.06
2023-05-09T00:49:58.143Z,39.01
2023-05-09T00:50:58.121Z,39.05
2023-05-09T00:51:58.152Z,39.02
2023-05-09T00:52:58.201Z,39.05
2023-05-09T00:53:58.194Z,39.05
2023-05-09T00:54:58.216Z,39.00
2023-05-09T00:55:58.210Z,39.02
2023-05-09T00:56:58.194Z,39.04
2023-05-09T00:57:58.329Z,39.06
2023-05-09T00:58:58.241Z,39.03
2023-05-09T00:59:58.224Z,39.04
2023-05-09T01:00:58.248Z,39.04
2023-05-09T01:01:58.274Z,39.00
2023-05-09T01:02:58.351Z,38.96
2023-05-09T01:03:58.321Z,39.05
2023-05-09T01:04:58.341Z,39.00
2023-05-09T01:05:58.376Z,38.99
2023-05-09T01:06:59.171Z,38.98
2023-05-09T01:07:58.448Z,39.04
2023-05-09T01:08:58.534Z,38.96
2023-05-09T01:09:58.559Z,38.99
2023-05-09T01:10:58.612Z,38.96
2023-05-09T01:11:58.651Z,38.96
2023-05-09T01:12:58.747Z,38.99
2023-05-09T01:13:58.828Z,38.98
2023-05-09T01:14:58.758Z,38.92
2023-05-09T01:15:58.824Z,39.00
2023-05-09T01:16:58.795Z,38.96
2023-05-09T01:17:58.875Z,38.98
2023-05-09T01:18:58.885Z,38.96
2023-05-09T01:19:58.937Z,38.99
2023-05-09T01:20:58.996Z,38.98
2023-05-09T01:21:59.007Z,38.93
2023-05-09T01:22:59.032Z,38.93
2023-05-09T01:23:59.074Z,38.97
2023-05-09T01:24:59.141Z,38.92
2023-05-09T01:25:59.192Z,38.92
2023-05-09T01:26:59.257Z,39.02
2023-05-09T01:27:59.279Z,38.96
2023-05-09T01:28:59.314Z,38.96
2023-05-09T01:29:59.488Z,38.95
2023-05-09T01:30:59.425Z,38.92
2023-05-09T01:31:59.430Z,38.95
2023-05-09T01:32:59.513Z,38.92
2023-05-09T01:33:59.500Z,38.98
2023-05-09T01:34:59.516Z,38.93
2023-05-09T01:35:59.525Z,38.95
2023-05-09T01:36:59.594Z,38.96
2023-05-09T01:37:59.591Z,38.93
2023-05-09T01:38:59.594Z,38.95
2023-05-09T01:39:59.591Z,38.90
2023-05-09T01:40:59.588Z,38.92
2023-05-09T01:41:59.595Z,38.92
2023-05-09T01:42:59.604Z,38.96
2023-05-09T01:43:59.647Z,38.89
2023-05-09T01:44:59.625Z,38.92
2023-05-09T01:45:59.770Z,38.95
2023-05-09T01:46:59.657Z,38.88
2023-05-09T01:47:59.666Z,38.86
2023-05-09T01:48:59.612Z,38.85
2023-05-09T01:49:59.609Z,38.86
2023-05-09T01:50:59.603Z,38.87
2023-05-09T01:51:59.599Z,38.89
2023-05-09T01:52:59.591Z,38.85
2023-05-09T01:53:59.586Z,38.85
2023-05-09T01:54:59.573Z,38.86
2023-05-09T01:55:59.568Z,38.89
2023-05-09T01:56:59.566Z,38.87
2023-05-09T01:57:59.593Z,38.84
2023-05-09T01:58:59.588Z,38.85
2023-05-09T01:59:59.581Z,38.85
2023-05-09T02:00:59.589Z,38.84
2023-05-09T02:01:59.733Z,38.84
2023-05-09T02:02:59.727Z,38.84
2023-05-09T02:03:59.618Z,38.82
2023-05-09T02:04:59.632Z,38.85
2023-05-09T02:05:59.640Z,38.87
2023-05-09T02:06:59.657Z,38.82
2023-05-09T02:07:59.680Z,38.81
2023-05-09T02:08:59.677Z,38.82
2023-05-09T02:09:59.657Z,38.82
2023-05-09T02:10:59.652Z,38.79
2023-05-09T02:11:59.656Z,38.81
2023-05-09T02:12:59.648Z,38.80
2023-05-09T02:13:59.623Z,38.81
2023-05-09T02:14:59.615Z,38.80
2023-05-09T02:15:59.631Z,38.83
2023-05-09T02:16:59.678Z,38.78
2023-05-09T02:17:59.837Z,38.82
2023-05-09T02:18:59.617Z,38.79
2023-05-09T02:19:59.594Z,38.77
2023-05-09T02:20:59.603Z,38.82
2023-05-09T02:21:59.583Z,38.80
2023-05-09T02:22:59.581Z,38.79
2023-05-09T02:23:59.575Z,38.79
2023-05-09T02:24:59.569Z,38.78
2023-05-09T02:25:59.554Z,38.79
2023-05-09T02:26:59.559Z,38.78
2023-05-09T02:27:59.542Z,38.79
2023-05-09T02:28:59.538Z,38.81
2023-05-09T02:29:59.536Z,38.75
2023-05-09T02:30:59.557Z,38.75
2023-05-09T02:31:59.579Z,38.82
2023-05-09T02:32:59.597Z,38.80
2023-05-09T02:33:59.706Z,38.75
2023-05-09T02:34:59.536Z,38.73
2023-05-09T02:35:59.543Z,38.76
2023-05-09T02:36:59.530Z,38.78
2023-05-09T02:37:59.530Z,38.79
2023-05-09T02:38:59.516Z,38.73
2023-05-09T02:39:59.495Z,38.78
2023-05-09T02:40:59.486Z,38.76
2023-05-09T02:41:59.483Z,38.76
2023-05-09T02:42:59.467Z,38.73
2023-05-09T02:43:59.464Z,38.73
2023-05-09T02:44:59.458Z,38.72
2023-05-09T02:45:59.475Z,38.75
2023-05-09T02:46:59.445Z,38.75
2023-05-09T02:47:59.464Z,38.78
2023-05-09T02:48:59.423Z,38.79
2023-05-09T02:49:59.565Z,38.78
2023-05-09T02:50:59.404Z,38.72
2023-05-09T02:51:59.413Z,38.73
2023-05-09T02:52:59.382Z,38.71
2023-05-09T02:53:59.375Z,38.73
2023-05-09T02:55:00.031Z,38.69
2023-05-09T02:55:59.358Z,38.76
2023-05-09T02:56:59.349Z,38.71
2023-05-09T02:58:12.621Z,38.73
2023-05-09T02:58:59.315Z,38.71
2023-05-09T02:59:59.299Z,38.71
2023-05-09T03:00:59.284Z,38.71
2023-05-09T03:01:59.295Z,38.72
2023-05-09T03:02:59.294Z,38.73
2023-05-09T03:03:59.250Z,38.73
2023-05-09T03:04:59.203Z,38.73
2023-05-09T03:05:59.326Z,38.71
2023-05-09T03:06:59.230Z,38.69
2023-05-09T03:07:59.165Z,38.68
2023-05-09T03:08:59.157Z,38.71
2023-05-09T03:09:59.137Z,38.68
2023-05-09T03:10:59.121Z,38.76
2023-05-09T03:11:59.127Z,38.67
2023-05-09T03:12:59.178Z,38.66
2023-05-09T03:13:59.089Z,38.65
2023-05-09T03:14:59.070Z,38.65
2023-05-09T03:15:59.030Z,38.66
2023-05-09T03:16:59.012Z,38.67
2023-05-09T03:17:59.048Z,38.66
2023-05-09T03:18:58.971Z,38.73
2023-05-09T03:19:59.974Z,38.68
2023-05-09T03:20:58.950Z,38.66
2023-05-09T03:21:59.049Z,38.68
2023-05-09T03:22:58.918Z,38.65
2023-05-09T03:23:58.910Z,38.68
2023-05-09T03:24:58.892Z,38.65
2023-05-09T03:25:58.886Z,38.68
2023-05-09T03:26:58.908Z,38.63
2023-05-09T03:27:58.869Z,38.64
2023-05-09T03:28:58.860Z,38.66
2023-05-09T03:29:59.658Z,38.61
2023-05-09T03:30:58.852Z,38.66
2023-05-09T03:31:58.804Z,38.63
2023-05-09T03:32:58.837Z,38.69
2023-05-09T03:33:58.785Z,38.65
2023-05-09T03:34:58.755Z,38.66
2023-05-09T03:35:58.745Z,38.60
2023-05-09T03:36:58.720Z,38.62
2023-05-09T03:37:57.875Z,38.60
2023-05-09T03:38:58.706Z,38.65
2023-05-09T03:39:58.686Z,38.62
2023-05-09T03:40:58.658Z,38.58
2023-05-09T03:41:58.644Z,38.65
2023-05-09T03:42:58.614Z,38.66
2023-05-09T03:43:58.604Z,38.59
2023-05-09T03:44:58.593Z,38.59
2023-05-09T03:45:58.590Z,38.63
2023-05-09T03:46:59.562Z,38.63
2023-05-09T03:47:58.620Z,38.60
2023-05-09T03:48:58.539Z,38.62
2023-05-09T03:49:58.526Z,38.63
2023-05-09T03:50:58.508Z,38.65
2023-05-09T03:51:58.500Z,38.63
2023-05-09T03:52:58.485Z,38.63
2023-05-09T03:53:58.587Z,38.60
2023-05-09T03:54:58.477Z,38.60
2023-05-09T03:55:58.441Z,38.58
2023-05-09T03:56:58.450Z,38.58
2023-05-09T03:57:58.410Z,38.55
2023-05-09T03:58:58.392Z,38.60
2023-05-09T03:59:58.381Z,38.55
2023-05-09T04:00:58.360Z,38.62
2023-05-09T04:01:58.409Z,38.61
2023-05-09T04:02:58.432Z,38.58
2023-05-09T04:03:58.382Z,38.60
2023-05-09T04:04:58.281Z,38.60
2023-05-09T04:05:58.267Z,38.57
2023-05-09T04:06:58.245Z,38.58
2023-05-09T04:07:58.242Z,38.55
2023-05-09T04:08:58.232Z,38.52
2023-05-09T04:09:58.329Z,38.55
2023-05-09T04:10:58.194Z,38.55
2023-05-09T04:11:58.182Z,38.54
2023-05-09T04:12:58.199Z,38.58
2023-05-09T04:13:58.164Z,38.54
2023-05-09T04:14:58.137Z,38.54
2023-05-09T04:15:58.133Z,38.55
2023-05-09T04:16:58.193Z,38.49
2023-05-09T04:17:58.184Z,38.52
2023-05-09T04:18:58.127Z,38.49
2023-05-09T04:19:58.117Z,38.52
2023-05-09T04:20:58.120Z,38.54
2023-05-09T04:21:58.113Z,38.51
2023-05-09T04:23:00.062Z,38.52
2023-05-09T04:23:58.101Z,38.59
2023-05-09T04:24:58.091Z,38.54
2023-05-09T04:25:58.197Z,38.49
2023-05-09T04:26:58.064Z,38.50
2023-05-09T04:27:58.078Z,38.52
2023-05-09T04:28:58.039Z,38.55
2023-05-09T04:29:58.015Z,38.54
2023-05-09T04:30:58.087Z,38.49
2023-05-09T04:31:58.068Z,38.52
2023-05-09T04:32:57.989Z,38.49
2023-05-09T04:33:57.942Z,38.54
2023-05-09T04:34:57.932Z,38.49
2023-05-09T04:35:57.912Z,38.48
2023-05-09T04:36:57.906Z,38.48
2023-05-09T04:37:57.883Z,38.47
2023-05-09T04:38:57.874Z,38.49
2023-05-09T04:39:57.864Z,38.47
2023-05-09T04:40:57.844Z,38.51
2023-05-09T04:41:57.938Z,38.49
2023-05-09T04:42:57.833Z,38.52
2023-05-09T04:43:57.858Z,38.48
2023-05-09T04:44:57.784Z,38.49
2023-05-09T04:45:57.778Z,38.48
2023-05-09T04:46:57.743Z,38.45
2023-05-09T04:47:57.782Z,38.48
2023-05-09T04:48:57.713Z,38.44
2023-05-09T04:49:57.719Z,38.49
2023-05-09T04:50:57.675Z,38.49
2023-05-09T04:51:57.682Z,38.47
2023-05-09T04:52:57.756Z,38.46
2023-05-09T04:53:57.645Z,38.44
2023-05-09T04:54:57.644Z,38.43
2023-05-09T04:55:57.622Z,38.49
2023-05-09T04:57:09.903Z,38.46
2023-05-09T04:57:57.716Z,38.41
2023-05-09T04:58:57.585Z,38.45
2023-05-09T04:59:57.572Z,38.48
2023-05-09T05:00:57.551Z,38.45
2023-05-09T05:01:57.569Z,38.42
2023-05-09T05:02:57.565Z,38.43
2023-05-09T05:03:57.513Z,38.44
2023-05-09T05:05:10.195Z,38.48
2023-05-09T05:05:57.484Z,38.45
2023-05-09T05:06:57.450Z,38.43
2023-05-09T05:07:57.427Z,38.46
2023-05-09T05:08:57.420Z,38.45
2023-05-09T05:09:57.396Z,38.47
2023-05-09T05:10:57.381Z,38.43
2023-05-09T05:12:01.282Z,38.41
2023-05-09T05:12:57.370Z,38.43
2023-05-09T05:13:57.447Z,38.45
2023-05-09T05:14:57.318Z,38.45
2023-05-09T05:15:57.308Z,38.45
2023-05-09T05:16:57.278Z,38.41
2023-05-09T05:17:57.296Z,38.41
2023-05-09T05:18:57.241Z,38.35
2023-05-09T05:19:57.231Z,38.44
2023-05-09T05:20:57.681Z,38.40
2023-05-09T05:21:57.197Z,38.38
2023-05-09T05:22:57.582Z,38.40
2023-05-09T05:23:57.168Z,38.43
2023-05-09T05:24:57.133Z,38.44
2023-05-09T05:25:57.123Z,38.52
2023-05-09T05:26:57.095Z,38.46
2023-05-09T05:27:57.603Z,38.46
2023-05-09T05:28:57.059Z,38.53
2023-05-09T05:29:57.491Z,38.46
2023-05-09T05:30:57.029Z,38.51
2023-05-09T05:31:57.150Z,38.50
2023-05-09T05:32:57.048Z,38.50
2023-05-09T05:33:56.997Z,38.47
2023-05-09T05:34:56.967Z,38.50
2023-05-09T05:35:56.971Z,38.50
2023-05-09T05:36:56.950Z,38.52
2023-05-09T05:37:57.133Z,38.49
2023-05-09T05:38:56.920Z,38.53
2023-05-09T05:39:56.907Z,38.53
2023-05-09T05:40:56.896Z,38.52
2023-05-09T05:41:56.871Z,38.46
2023-05-09T05:42:57.087Z,38.49
2023-05-09T05:44:12.483Z,39.14
2023-05-09T05:44:56.837Z,39.35
2023-05-09T05:45:56.981Z,39.05
2023-05-09T05:46:56.820Z,39.04
2023-05-09T05:47:57.100Z,39.10
2023-05-09T05:48:56.788Z,39.01
2023-05-09T05:49:56.781Z,38.98
2023-05-09T05:50:56.762Z,39.17
2023-05-09T05:51:56.744Z,39.06
2023-05-09T12:42:01.079Z,35.60
2023-05-09T12:42:51.043Z,35.03
2023-05-09T12:43:51.075Z,34.70
2023-05-09T12:44:51.071Z,34.02
2023-05-09T12:45:51.081Z,33.94
2023-05-09T12:46:51.135Z,34.04
2023-05-09T12:47:51.170Z,34.03
2023-05-09T12:48:51.117Z,34.51
2023-05-09T12:49:51.128Z,33.77
2023-05-09T12:50:51.199Z,33.74
2023-05-09T12:51:51.177Z,34.03
2023-05-09T12:53:02.636Z,34.02
2023-05-09T12:53:51.278Z,33.06
2023-05-09T12:54:51.274Z,33.00
2023-05-09T12:55:51.294Z,32.60
2023-05-09T12:56:51.309Z,32.67
2023-05-09T12:57:51.438Z,33.40
2023-05-09T12:58:51.327Z,33.52
2023-05-09T12:59:51.353Z,33.29
2023-05-09T13:00:51.401Z,33.41
2023-05-09T13:01:51.379Z,33.49
2023-05-09T13:02:51.431Z,33.56
2023-05-09T13:03:51.375Z,33.63
2023-05-09T13:04:51.703Z,33.68
2023-05-09T13:05:51.707Z,33.62
2023-05-09T13:06:51.402Z,33.74
2023-05-09T13:07:51.402Z,33.51
2023-05-09T13:08:51.418Z,32.78
2023-05-09T13:09:51.418Z,33.20
2023-05-09T13:10:57.843Z,33.21
2023-05-09T13:11:51.708Z,33.73
2023-05-09T13:12:51.567Z,33.63
2023-05-09T13:13:51.581Z,33.72
2023-05-09T13:14:51.459Z,33.59
2023-05-09T13:15:51.716Z,33.60
2023-05-09T13:16:51.584Z,33.68
2023-05-09T13:17:51.586Z,33.72
2023-05-09T13:18:51.485Z,33.97
2023-05-09T13:19:51.484Z,34.08
2023-05-09T13:20:51.498Z,34.00
2023-05-09T13:21:51.706Z,34.03
2023-05-09T13:22:51.517Z,34.09
2023-05-09T13:23:51.513Z,34.17
2023-05-09T13:24:51.515Z,34.67
2023-05-09T13:25:51.524Z,35.13
2023-05-09T13:26:51.529Z,34.38
2023-05-09T13:27:51.529Z,34.65
2023-05-09T13:28:51.529Z,35.19
2023-05-09T13:29:52.397Z,35.40
2023-05-09T13:30:51.603Z,35.83
2023-05-09T13:31:51.584Z,35.91
2023-05-09T13:32:51.661Z,36.35
2023-05-09T13:33:52.061Z,36.66
2023-05-09T13:34:51.762Z,36.68
2023-05-09T13:35:52.216Z,36.85
2023-05-09T13:36:51.919Z,36.99
2023-05-09T13:37:51.988Z,37.31
2023-05-09T13:38:52.217Z,37.71
2023-05-09T13:39:52.132Z,37.94
2023-05-09T13:40:52.721Z,38.08
2023-05-09T13:41:52.271Z,38.67
2023-05-09T13:42:52.347Z,39.05
2023-05-09T13:43:52.422Z,39.30
2023-05-09T13:44:52.493Z,39.42
2023-05-09T13:45:52.764Z,39.62
2023-05-09T13:46:52.694Z,39.76
2023-05-09T13:47:52.731Z,39.81
2023-05-09T13:48:53.225Z,39.91
2023-05-09T13:49:52.882Z,39.99
2023-05-09T13:50:52.929Z,40.13
2023-05-09T13:51:53.009Z,40.18
2023-05-09T13:52:53.100Z,40.23
2023-05-09T13:53:53.163Z,40.30
2023-05-09T13:54:53.253Z,40.27
2023-05-09T13:55:53.313Z,40.38
2023-05-09T13:56:53.393Z,40.44
2023-05-09T13:57:53.482Z,40.55
2023-05-09T13:58:53.549Z,40.68
2023-05-09T13:59:53.606Z,40.72
2023-05-09T14:00:53.702Z,40.77
2023-05-09T14:01:53.917Z,40.82
2023-05-09T14:02:53.933Z,40.88
2023-05-09T14:03:53.992Z,40.84
2023-05-09T14:04:53.976Z,40.87
2023-05-09T14:05:54.049Z,40.86
2023-05-09T14:06:54.120Z,40.84
2023-05-09T14:07:54.182Z,40.88
2023-05-09T14:08:54.723Z,40.88
2023-05-09T14:10:10.475Z,40.91
2023-05-09T14:10:54.332Z,40.95
2023-05-09T14:11:55.342Z,40.93
2023-05-09T14:12:54.451Z,40.94
2023-05-09T14:13:54.626Z,40.91
2023-05-09T14:14:54.362Z,40.95
2023-05-09T14:15:54.389Z,40.90
2023-05-09T14:16:54.369Z,40.91
2023-05-09T14:17:54.519Z,40.91
2023-05-09T14:18:54.428Z,40.94
2023-05-09T14:19:54.523Z,40.94
2023-05-09T14:20:54.575Z,41.01
2023-05-09T14:21:54.644Z,40.99
2023-05-09T14:22:54.734Z,40.98
2023-05-09T14:23:54.807Z,41.02
2023-05-09T14:24:54.878Z,41.01
2023-05-09T14:25:55.235Z,40.97
2023-05-09T14:26:55.002Z,40.94
2023-05-09T14:27:55.084Z,40.91
2023-05-09T14:28:55.167Z,40.91
2023-05-09T14:29:55.264Z,40.91
2023-05-09T14:30:55.310Z,40.86
2023-05-09T14:31:55.495Z,40.89
2023-05-09T14:32:55.451Z,40.91
2023-05-09T14:33:55.649Z,40.87
2023-05-09T14:34:55.619Z,40.86
2023-05-09T14:35:55.689Z,40.80
2023-05-09T14:36:55.758Z,40.83
2023-05-09T14:37:55.822Z,40.82
2023-05-09T14:38:55.909Z,40.79
2023-05-09T14:39:55.995Z,40.74
2023-05-09T14:40:56.067Z,40.79
2023-05-09T14:41:56.134Z,40.78
2023-05-09T14:42:56.210Z,40.77
2023-05-09T14:43:56.290Z,40.76
2023-05-09T14:44:56.364Z,40.76
2023-05-09T14:45:56.439Z,40.75
2023-05-09T14:46:56.791Z,40.71
2023-05-09T14:47:56.614Z,40.70
2023-05-09T14:48:56.659Z,40.65
2023-05-09T14:49:56.882Z,40.67
2023-05-09T14:50:56.790Z,40.64
2023-05-09T14:51:56.881Z,40.63
2023-05-09T14:52:56.951Z,40.53
2023-05-09T14:53:57.020Z,40.52
2023-05-09T14:54:57.104Z,40.48
2023-05-09T14:55:57.166Z,40.50
2023-05-09T14:56:57.233Z,40.43
2023-05-09T14:57:57.305Z,40.41
2023-05-09T14:58:57.381Z,40.35
2023-05-09T15:00:00.870Z,40.38
2023-05-09T15:00:57.778Z,40.34
2023-05-09T15:01:57.459Z,40.32
2023-05-09T15:02:57.654Z,40.25
2023-05-09T15:03:57.541Z,40.32
2023-05-09T15:04:57.495Z,40.27
2023-05-09T15:05:57.637Z,40.20
2023-05-09T15:06:57.515Z,40.20
2023-05-09T15:07:57.539Z,40.22
2023-05-09T15:08:57.551Z,40.15
2023-05-09T15:09:57.749Z,40.16
2023-05-09T15:10:57.570Z,40.18
2023-05-09T15:11:57.576Z,40.12
2023-05-09T15:12:57.593Z,40.12
2023-05-09T15:13:57.616Z,40.15
2023-05-09T15:14:58.248Z,40.11
2023-05-09T15:15:57.604Z,40.10
2023-05-09T15:16:57.664Z,40.05
2023-05-09T15:17:57.610Z,40.04
2023-05-09T15:18:57.614Z,40.03
2023-05-09T15:19:57.616Z,40.01
2023-05-09T15:20:57.641Z,39.96
2023-05-09T15:21:57.832Z,39.95
2023-05-09T15:22:57.789Z,39.95
2023-05-09T15:23:57.835Z,39.96
2023-05-09T15:24:57.908Z,39.90
2023-05-09T15:25:57.973Z,39.95
2023-05-09T15:26:58.052Z,39.95
2023-05-09T15:27:58.099Z,39.96
2023-05-09T15:28:58.158Z,39.87
2023-05-09T15:29:58.229Z,39.85
2023-05-09T15:30:58.368Z,39.84
2023-05-09T15:31:58.362Z,39.88
2023-05-09T15:32:58.480Z,39.85
2023-05-09T15:33:58.486Z,39.83
2023-05-09T15:34:58.543Z,39.84
2023-05-09T15:35:58.598Z,39.83
2023-05-09T15:36:58.670Z,39.74
2023-05-09T15:37:58.937Z,39.76
2023-05-09T15:38:58.787Z,39.79
2023-05-09T15:39:58.828Z,39.75
2023-05-09T15:40:58.885Z,39.70
2023-05-09T15:41:58.952Z,39.73
2023-05-09T15:42:59.014Z,39.72
2023-05-09T15:43:59.074Z,39.68
2023-05-09T15:44:59.125Z,39.69
2023-05-09T15:45:59.292Z,39.72
2023-05-09T15:46:59.240Z,39.71
2023-05-09T15:47:59.303Z,39.76
2023-05-09T15:48:59.352Z,39.68
2023-05-09T15:49:59.414Z,39.68
2023-05-09T15:50:59.485Z,39.64
2023-05-09T15:51:59.529Z,39.61
2023-05-09T15:52:59.588Z,39.59
2023-05-09T15:53:59.692Z,39.59
2023-05-09T15:54:59.758Z,39.56
2023-05-09T15:55:59.789Z,39.62
2023-05-09T15:56:59.831Z,39.58
2023-05-09T15:57:59.896Z,39.56
2023-05-09T15:58:59.963Z,39.55
2023-05-09T16:00:00.019Z,39.55
2023-05-09T16:01:00.092Z,39.51
2023-05-09T16:02:00.245Z,39.51
2023-05-09T16:03:00.363Z,39.50
2023-05-09T16:04:00.421Z,39.45
2023-05-09T16:05:00.327Z,39.47
2023-05-09T16:06:00.385Z,39.50
2023-05-09T16:07:00.449Z,39.49
2023-05-09T16:08:00.514Z,39.47
2023-05-09T16:09:00.561Z,39.46
2023-05-09T16:10:00.739Z,39.46
2023-05-09T16:11:00.680Z,39.46
2023-05-09T16:12:00.751Z,39.37
2023-05-09T16:13:00.857Z,39.38
2023-05-09T16:14:00.867Z,39.38
2023-05-09T16:15:00.907Z,39.44
2023-05-09T16:16:01.075Z,39.41
2023-05-09T16:17:01.037Z,39.43
2023-05-09T16:18:01.115Z,39.43
2023-05-09T16:19:01.151Z,39.49
2023-05-09T16:20:01.267Z,39.45
2023-05-09T16:21:01.310Z,39.45
2023-05-09T16:22:01.328Z,39.43
2023-05-09T16:23:01.390Z,39.44
2023-05-09T16:24:01.445Z,39.44
2023-05-09T16:25:01.518Z,39.41
2023-05-09T16:26:01.692Z,39.44
2023-05-09T16:27:01.639Z,39.42
2023-05-09T16:28:01.694Z,39.48
2023-05-09T16:29:01.746Z,39.48
2023-05-09T16:30:01.866Z,39.45
2023-05-09T16:31:01.873Z,39.48
2023-05-09T16:32:02.061Z,39.45
2023-05-09T16:33:02.134Z,39.52
2023-05-09T16:34:02.062Z,39.46
2023-05-09T16:35:02.110Z,39.53
2023-05-09T16:36:02.177Z,39.49
2023-05-09T16:37:02.230Z,39.52
2023-05-09T16:38:02.288Z,39.50
2023-05-09T16:39:02.333Z,39.53
2023-05-09T16:40:02.397Z,39.47
2023-05-09T16:41:02.475Z,39.53
2023-05-09T16:42:02.678Z,39.55
2023-05-09T16:43:02.576Z,39.61
2023-05-09T16:44:02.633Z,39.50
2023-05-09T16:45:02.702Z,39.52
2023-05-09T16:46:02.808Z,39.56
2023-05-09T16:47:02.877Z,39.54
2023-05-09T16:48:02.918Z,39.55
2023-05-09T16:49:02.946Z,39.58
2023-05-09T16:50:03.017Z,39.52
2023-05-09T16:51:03.082Z,39.55
2023-05-09T16:52:04.011Z,39.57
2023-05-09T16:53:03.197Z,39.58
2023-05-09T16:54:03.260Z,39.60
2023-05-09T16:55:03.316Z,39.60
2023-05-09T16:56:03.385Z,39.56
2023-05-09T16:57:03.465Z,39.59
2023-05-09T16:58:03.636Z,39.53
2023-05-09T16:59:03.610Z,39.59
2023-05-09T17:00:03.642Z,39.58
2023-05-09T17:01:03.783Z,39.58
2023-05-09T17:02:03.755Z,39.59
2023-05-09T17:03:03.871Z,39.62
2023-05-09T17:04:03.916Z,39.60
2023-05-09T17:05:03.937Z,39.64
2023-05-09T17:06:03.993Z,39.63
2023-05-09T17:07:04.055Z,39.61
2023-05-09T17:08:04.102Z,39.60
2023-05-09T17:09:04.170Z,39.64
2023-05-09T17:10:04.233Z,39.63
2023-05-09T17:11:04.300Z,39.63
2023-05-09T17:12:04.367Z,39.60
2023-05-09T17:13:04.458Z,39.63
2023-05-09T17:14:04.581Z,39.62
2023-05-09T17:15:04.526Z,39.66
2023-05-09T17:16:04.642Z,39.66
2023-05-09T17:17:04.661Z,39.65
2023-05-09T17:18:04.875Z,39.65
2023-05-09T17:19:04.770Z,39.66
2023-05-09T17:20:04.864Z,39.66
2023-05-09T17:21:04.919Z,39.65
2023-05-09T17:22:04.982Z,39.66
2023-05-09T17:23:05.043Z,39.65
2023-05-09T17:24:05.083Z,39.63
2023-05-09T17:25:05.214Z,39.66
2023-05-09T17:26:05.218Z,39.68
2023-05-09T17:27:05.302Z,39.68
2023-05-09T17:28:05.364Z,39.65
2023-05-09T17:29:05.411Z,39.66
2023-05-09T17:30:05.490Z,39.67
2023-05-09T17:31:05.524Z,39.63
2023-05-09T17:32:05.618Z,39.66
2023-05-09T17:33:05.798Z,39.70
2023-05-09T17:34:05.822Z,39.69
2023-05-09T17:35:05.805Z,39.70
2023-05-09T17:36:05.842Z,39.67
2023-05-09T17:37:05.958Z,39.66
2023-05-09T17:38:05.983Z,39.64
2023-05-09T17:39:06.052Z,39.73
2023-05-09T17:40:06.125Z,39.71
2023-05-09T17:41:06.226Z,39.75
2023-05-09T17:42:06.264Z,39.68
2023-05-09T17:43:06.352Z,39.71
2023-05-09T17:44:06.400Z,39.71
2023-05-09T17:45:06.469Z,39.72
2023-05-09T17:46:06.714Z,39.71
2023-05-09T17:47:06.604Z,39.68
2023-05-09T17:48:06.778Z,39.72
2023-05-09T17:49:06.747Z,39.73
2023-05-09T17:50:06.819Z,39.72
2023-05-09T17:51:06.968Z,39.74
2023-05-09T17:52:06.964Z,39.74
2023-05-09T17:53:07.037Z,39.76
2023-05-09T17:54:07.114Z,39.72
2023-05-09T17:55:07.175Z,39.73
2023-05-09T17:56:07.271Z,39.79
2023-05-09T17:57:07.319Z,39.80
2023-05-09T17:58:07.398Z,39.78
2023-05-09T17:59:07.477Z,39.78
2023-05-09T18:00:07.541Z,39.73
2023-05-09T18:01:07.790Z,39.79
2023-05-09T18:02:07.807Z,39.78
2023-05-09T18:03:07.950Z,39.74
2023-05-09T18:04:07.839Z,39.78
2023-05-09T18:05:07.919Z,39.82
2023-05-09T18:06:08.051Z,39.85
2023-05-09T18:07:08.065Z,39.81
2023-05-09T18:08:08.142Z,39.81
2023-05-09T18:09:08.217Z,39.78
2023-05-09T18:10:08.310Z,39.79
2023-05-09T18:11:08.414Z,39.84
2023-05-09T18:12:08.452Z,39.79
2023-05-09T18:13:08.624Z,39.78
2023-05-09T18:14:08.612Z,39.82
2023-05-09T18:15:08.686Z,39.85
2023-05-09T18:16:08.812Z,39.79
2023-05-09T18:17:08.881Z,39.79
2023-05-09T18:18:09.856Z,39.85
2023-05-09T18:19:09.180Z,39.81
2023-05-09T18:20:09.267Z,39.82
2023-05-09T18:21:09.349Z,39.86
2023-05-09T18:22:09.425Z,39.85
2023-05-09T18:23:09.477Z,39.86
2023-05-09T18:24:09.575Z,39.79
2023-05-09T18:25:09.628Z,39.83
2023-05-09T18:26:09.699Z,39.88
2023-05-09T18:27:09.791Z,39.85
2023-05-09T18:28:09.914Z,39.88
2023-05-09T18:29:09.941Z,39.84
2023-05-09T18:30:10.029Z,39.81
2023-05-09T18:31:10.174Z,39.80
2023-05-09T18:32:10.235Z,39.83
2023-05-09T18:33:10.327Z,39.80
2023-05-09T18:34:10.455Z,39.80
2023-05-09T18:35:10.422Z,39.84
2023-05-09T18:36:10.493Z,39.80
2023-05-09T18:37:10.581Z,39.81
2023-05-09T18:38:10.658Z,39.85
2023-05-09T18:39:10.711Z,39.85
2023-05-09T18:40:10.810Z,39.85
2023-05-09T18:41:10.872Z,39.88
2023-05-09T18:42:10.968Z,39.80
2023-05-09T18:43:11.046Z,39.82
2023-05-09T18:44:11.105Z,39.85
2023-05-09T18:45:11.174Z,39.84
2023-05-09T18:46:11.247Z,39.82
2023-05-09T18:47:11.350Z,39.86
2023-05-09T18:48:11.386Z,39.81
2023-05-09T18:49:11.459Z,39.82
2023-05-09T18:50:11.632Z,39.82
2023-05-09T18:51:11.642Z,39.84
2023-05-09T18:52:11.637Z,39.85
2023-05-09T18:53:11.739Z,39.78
2023-05-09T18:54:11.766Z,39.83
2023-05-09T18:55:11.787Z,39.76
2023-05-09T18:56:11.909Z,39.81
2023-05-09T18:57:11.860Z,39.80
2023-05-09T18:58:11.931Z,39.81
2023-05-09T18:59:12.005Z,39.79
2023-05-09T19:00:12.018Z,39.81
2023-05-09T19:01:12.106Z,39.82
2023-05-09T19:02:12.142Z,39.83
2023-05-09T19:03:12.203Z,39.80
2023-05-09T19:04:12.301Z,39.83
2023-05-09T19:05:12.273Z,39.78
2023-05-09T19:06:12.468Z,39.80
2023-05-09T19:07:12.364Z,39.79
2023-05-09T19:08:12.389Z,39.78
2023-05-09T19:09:12.435Z,39.75
2023-05-09T19:10:12.600Z,39.76
2023-05-09T19:11:12.533Z,39.80
2023-05-09T19:12:12.588Z,39.82
2023-05-09T19:13:14.684Z,39.80
2023-05-09T19:14:12.574Z,39.82
2023-05-09T19:15:12.581Z,39.81
2023-05-09T19:16:12.649Z,39.81
2023-05-09T19:17:12.608Z,39.81
2023-05-09T19:18:12.700Z,39.79
2023-05-09T19:19:12.637Z,39.81
2023-05-09T19:20:12.676Z,39.79
2023-05-09T19:21:12.655Z,39.80
2023-05-09T19:22:12.782Z,39.81
2023-05-09T19:23:12.671Z,39.74
2023-05-09T19:24:12.656Z,39.77
2023-05-09T19:25:12.676Z,39.79
2023-05-09T19:26:12.664Z,39.79
2023-05-09T19:27:12.664Z,39.80
2023-05-09T19:28:12.673Z,39.79
2023-05-09T19:29:12.685Z,39.79
2023-05-09T19:30:12.833Z,39.74
2023-05-09T19:31:12.708Z,39.77
2023-05-09T19:32:12.695Z,39.73
2023-05-09T19:33:12.688Z,39.77
2023-05-09T19:34:12.693Z,39.75
2023-05-09T19:35:12.698Z,39.74
2023-05-09T19:36:12.696Z,39.78
2023-05-09T19:37:12.698Z,39.81
2023-05-09T19:38:12.742Z,39.81
2023-05-09T19:39:12.727Z,39.84
2023-05-09T19:40:12.837Z,39.79
2023-05-09T19:41:12.744Z,39.81
2023-05-09T19:42:12.731Z,39.79